createdAt,value
2019-05-01T00:02:49.472Z,84.00
2019-05-01T00:05:26.085Z,83.87
2019-05-01T00:07:55.432Z,84.00
2019-05-01T00:10:26.551Z,83.93
2019-05-01T00:12:56.054Z,83.85
2019-05-01T00:15:27.303Z,84.10
2019-05-01T00:17:56.634Z,84.38
2019-05-01T00:20:26.051Z,84.21
2019-05-01T00:22:55.430Z,84.28
2019-05-01T00:25:24.756Z,84.21
2019-05-01T00:27:54.135Z,84.34
2019-05-01T00:30:30.011Z,84.13
2019-05-01T00:32:55.360Z,84.18
2019-05-01T00:35:24.727Z,84.63
2019-05-01T00:37:54.118Z,84.58
2019-05-01T00:40:23.446Z,84.88
2019-05-01T00:42:52.801Z,84.79
2019-05-01T00:45:22.465Z,85.35
2019-05-01T00:47:51.836Z,84.84
2019-05-01T00:50:21.201Z,84.78
2019-05-01T00:52:50.554Z,84.39
2019-05-01T00:55:37.500Z,84.46
2019-05-01T00:58:34.961Z,84.43
2019-05-01T01:01:26.195Z,84.82
2019-05-01T01:03:55.727Z,84.09
2019-05-01T01:06:25.058Z,83.71
2019-05-01T01:08:54.477Z,83.98
2019-05-01T01:11:23.862Z,82.72
2019-05-01T01:13:53.269Z,82.50
2019-05-01T01:16:22.670Z,81.64
2019-05-01T01:18:52.016Z,81.44
2019-05-01T01:21:21.388Z,73.14
2019-05-01T01:23:50.962Z,71.18
2019-05-01T01:26:20.297Z,63.98
2019-05-01T01:28:49.677Z,60.54
2019-05-01T01:31:19.046Z,59.20
2019-05-01T01:33:48.398Z,57.81
2019-05-01T01:36:17.817Z,57.27
2019-05-01T01:38:47.218Z,57.15
2019-05-01T01:41:16.794Z,56.60
2019-05-01T01:44:03.191Z,56.25
2019-05-01T01:46:33.185Z,56.50
2019-05-01T01:49:02.794Z,56.76
2019-05-01T01:51:32.289Z,56.46
2019-05-01T01:54:02.398Z,56.59
2019-05-01T01:56:31.768Z,55.99
2019-05-01T01:59:01.710Z,56.48
2019-05-01T02:01:45.497Z,56.57
2019-05-01T02:04:33.890Z,56.29
2019-05-01T02:07:03.266Z,56.82
2019-05-01T02:09:32.731Z,56.54
2019-05-01T02:12:02.712Z,56.31
2019-05-01T02:14:32.108Z,56.70
2019-05-01T02:17:01.484Z,56.58
2019-05-01T02:19:30.903Z,56.86
2019-05-01T02:22:00.237Z,56.58
2019-05-01T02:24:29.610Z,56.94
2019-05-01T02:27:01.003Z,56.85
2019-05-01T02:29:36.912Z,57.05
2019-05-01T02:32:06.728Z,56.96
2019-05-01T02:34:38.791Z,57.14
2019-05-01T02:37:09.932Z,57.21
2019-05-01T02:39:40.233Z,57.44
2019-05-01T02:42:12.490Z,57.18
2019-05-01T02:44:47.045Z,57.73
2019-05-01T02:47:21.494Z,57.56
2019-05-01T02:49:56.168Z,57.94
2019-05-01T02:52:29.242Z,58.04
2019-05-01T02:55:03.674Z,58.16
2019-05-01T02:57:35.301Z,58.11
2019-05-01T03:00:06.069Z,58.48
2019-05-01T03:02:36.613Z,58.47
2019-05-01T03:05:06.550Z,58.50
2019-05-01T03:07:37.746Z,58.38
2019-05-01T03:10:09.537Z,58.58
2019-05-01T03:12:41.996Z,58.60
2019-05-01T03:15:13.305Z,58.65
2019-05-01T03:17:52.382Z,58.99
2019-05-01T03:20:47.137Z,58.98
2019-05-01T03:23:39.471Z,59.20
2019-05-01T03:26:09.227Z,59.65
2019-05-01T03:28:38.876Z,59.61
2019-05-01T03:31:08.254Z,59.65
2019-05-01T03:33:37.927Z,59.54
2019-05-01T03:36:07.307Z,59.71
2019-05-01T03:38:36.951Z,59.51
2019-05-01T03:41:06.929Z,59.48
2019-05-01T03:43:36.801Z,59.74
2019-05-01T03:46:06.228Z,59.64
2019-05-01T03:48:35.678Z,59.73
2019-05-01T03:51:05.298Z,59.31
2019-05-01T03:53:35.570Z,59.18
2019-05-01T03:56:05.228Z,59.14
2019-05-01T03:58:34.621Z,59.45
2019-05-01T04:01:26.427Z,59.42
2019-05-01T04:03:59.069Z,59.34
2019-05-01T04:06:28.423Z,59.31
2019-05-01T04:08:58.483Z,59.69
2019-05-01T04:11:27.872Z,59.93
2019-05-01T04:13:57.934Z,59.94
2019-05-01T04:16:27.988Z,59.94
2019-05-01T04:18:57.565Z,59.75
2019-05-01T04:21:31.286Z,59.73
2019-05-01T04:24:01.525Z,59.72
2019-05-01T04:26:31.514Z,59.69
2019-05-01T04:29:28.907Z,59.47
2019-05-01T04:32:26.970Z,59.24
2019-05-01T04:35:24.553Z,58.99
2019-05-01T04:37:56.277Z,58.71
2019-05-01T04:40:25.992Z,58.64
2019-05-01T04:42:55.544Z,58.26
2019-05-01T04:45:25.026Z,57.87
2019-05-01T04:47:55.991Z,58.08
2019-05-01T04:50:25.933Z,57.67
2019-05-01T04:52:55.443Z,57.73
2019-05-01T04:55:24.962Z,57.45
2019-05-01T04:57:54.861Z,57.79
2019-05-01T05:00:24.409Z,58.10
2019-05-01T05:03:05.510Z,58.18
2019-05-01T05:05:35.084Z,58.31
2019-05-01T05:08:05.104Z,58.25
2019-05-01T05:10:35.186Z,58.04
2019-05-01T05:13:23.024Z,58.13
2019-05-01T05:16:10.913Z,57.26
2019-05-01T05:18:40.374Z,57.74
2019-05-01T05:21:10.274Z,57.76
2019-05-01T05:23:39.747Z,58.83
2019-05-01T05:26:09.917Z,58.64
2019-05-01T05:28:40.664Z,58.05
2019-05-01T05:31:11.272Z,58.08
2019-05-01T05:33:42.434Z,58.44
2019-05-01T05:36:14.144Z,58.06
2019-05-01T05:39:02.746Z,58.34
2019-05-01T05:41:33.217Z,58.40
2019-05-01T05:44:03.116Z,58.59
2019-05-01T05:46:32.621Z,58.53
2019-05-01T05:49:04.318Z,58.14
2019-05-01T05:51:45.124Z,57.93
2019-05-01T05:54:34.963Z,58.64
2019-05-01T05:57:25.529Z,58.26
2019-05-01T06:00:01.291Z,58.49
2019-05-01T06:02:58.328Z,57.92
2019-05-01T06:05:37.642Z,57.50
2019-05-01T06:08:11.780Z,56.90
2019-05-01T06:10:58.572Z,56.42
2019-05-01T06:13:43.727Z,55.49
2019-05-01T06:16:26.540Z,54.78
2019-05-01T06:19:09.662Z,54.97
2019-05-01T06:22:04.996Z,54.47
2019-05-01T06:24:40.670Z,53.20
2019-05-01T06:27:13.836Z,54.05
2019-05-01T06:29:41.288Z,54.16
2019-05-01T06:32:10.766Z,53.80
2019-05-01T06:34:40.223Z,54.03
2019-05-01T06:37:09.756Z,54.06
2019-05-01T06:39:42.996Z,52.93
2019-05-01T06:42:15.180Z,53.00
2019-05-01T06:44:55.313Z,52.39
2019-05-01T06:47:44.289Z,51.69
2019-05-01T06:50:27.649Z,51.14
2019-05-01T06:52:59.755Z,51.93
2019-05-01T06:55:29.287Z,50.47
2019-05-01T06:57:59.317Z,50.59
2019-05-01T07:00:28.926Z,50.37
2019-05-01T07:03:00.478Z,50.86
2019-05-01T07:05:31.066Z,50.51
2019-05-01T07:08:02.117Z,50.87
2019-05-01T07:10:43.158Z,51.02
2019-05-01T07:13:05.514Z,50.74
2019-05-01T07:15:35.608Z,51.16
2019-05-01T07:18:05.117Z,50.45
2019-05-01T07:20:53.573Z,51.26
2019-05-01T07:23:23.937Z,50.28
2019-05-01T07:25:53.411Z,50.01
2019-05-01T07:28:23.933Z,49.67
2019-05-01T07:30:59.786Z,50.60
2019-05-01T07:33:29.551Z,48.56
2019-05-01T07:35:59.016Z,49.53
2019-05-01T07:38:28.423Z,49.12
2019-05-01T07:40:58.841Z,49.00
2019-05-01T07:43:59.681Z,49.80
2019-05-01T07:46:56.595Z,49.78
2019-05-01T07:49:42.204Z,49.47
2019-05-01T07:52:12.492Z,48.72
2019-05-01T07:54:43.530Z,48.70
2019-05-01T07:57:13.139Z,47.99
2019-05-01T07:59:42.647Z,47.54
2019-05-01T08:02:13.836Z,47.90
2019-05-01T08:04:43.257Z,48.58
2019-05-01T08:07:12.640Z,48.04
2019-05-01T08:09:45.835Z,48.11
2019-05-01T08:12:14.458Z,48.86
2019-05-01T08:14:47.826Z,48.18
2019-05-01T08:17:17.971Z,47.66
2019-05-01T08:20:14.700Z,47.69
2019-05-01T08:22:40.972Z,47.30
2019-05-01T08:25:10.751Z,47.70
2019-05-01T08:27:56.414Z,46.89
2019-05-01T08:30:57.063Z,46.54
2019-05-01T08:33:49.881Z,44.79
2019-05-01T08:36:19.589Z,44.79
2019-05-01T08:38:49.025Z,44.95
2019-05-01T08:41:18.411Z,44.95
2019-05-01T08:43:48.999Z,44.88
2019-05-01T08:46:38.673Z,43.28
2019-05-01T08:49:16.998Z,42.16
2019-05-01T08:51:46.503Z,42.77
2019-05-01T08:54:15.875Z,42.37
2019-05-01T08:56:45.208Z,42.17
2019-05-01T08:59:14.936Z,42.62
2019-05-01T09:01:45.853Z,42.88
2019-05-01T09:04:15.487Z,42.49
2019-05-01T09:06:45.255Z,41.99
2019-05-01T09:09:14.724Z,43.22
2019-05-01T09:11:44.172Z,43.22
2019-05-01T09:14:13.559Z,42.59
2019-05-01T09:16:42.965Z,42.93
2019-05-01T09:19:12.321Z,42.95
2019-05-01T09:21:41.721Z,42.90
2019-05-01T09:24:11.236Z,46.04
2019-05-01T09:26:50.107Z,45.18
2019-05-01T09:29:26.461Z,45.18
2019-05-01T09:31:56.007Z,45.36
2019-05-01T09:34:25.514Z,45.08
2019-05-01T09:36:54.880Z,45.56
2019-05-01T09:39:24.996Z,44.50
2019-05-01T09:41:54.395Z,44.10
2019-05-01T09:44:23.755Z,44.14
2019-05-01T09:46:53.121Z,44.14
2019-05-01T09:49:22.938Z,43.25
2019-05-01T09:52:06.538Z,43.45
2019-05-01T09:54:57.670Z,43.65
2019-05-01T09:57:27.040Z,42.90
2019-05-01T09:59:56.461Z,42.64
2019-05-01T10:02:25.857Z,42.89
2019-05-01T10:04:55.283Z,43.06
2019-05-01T10:07:29.013Z,42.50
2019-05-01T10:09:55.783Z,42.50
2019-05-01T10:12:25.259Z,41.73
2019-05-01T10:14:54.663Z,42.26
2019-05-01T10:17:24.113Z,41.61
2019-05-01T10:19:53.450Z,42.64
2019-05-01T10:22:22.884Z,41.69
2019-05-01T10:24:53.192Z,41.68
2019-05-01T10:27:25.511Z,42.06
2019-05-01T10:30:13.786Z,42.24
2019-05-01T10:32:46.230Z,41.13
2019-05-01T10:35:42.583Z,39.51
2019-05-01T10:38:09.221Z,40.35
2019-05-01T10:40:36.124Z,41.07
2019-05-01T10:43:05.655Z,41.66
2019-05-01T10:45:35.032Z,42.33
2019-05-01T10:48:04.536Z,41.37
2019-05-01T10:50:33.939Z,40.25
2019-05-01T10:53:03.350Z,41.44
2019-05-01T10:55:32.741Z,41.32
2019-05-01T10:58:03.462Z,40.63
2019-05-01T11:00:33.756Z,39.82
2019-05-01T11:03:03.130Z,38.81
2019-05-01T11:05:32.507Z,38.82
2019-05-01T11:08:02.265Z,40.06
2019-05-01T11:10:31.659Z,40.34
2019-05-01T11:13:01.046Z,39.70
2019-05-01T11:15:30.535Z,39.94
2019-05-01T11:17:59.959Z,39.26
2019-05-01T11:20:29.325Z,38.12
2019-05-01T11:22:58.711Z,38.08
2019-05-01T11:25:28.376Z,38.27
2019-05-01T11:27:57.788Z,38.50
2019-05-01T11:30:27.284Z,37.17
2019-05-01T11:33:11.896Z,37.13
2019-05-01T11:36:10.032Z,36.68
2019-05-01T11:39:01.561Z,36.26
2019-05-01T11:41:34.989Z,36.07
2019-05-01T11:44:04.734Z,34.21
2019-05-01T11:46:34.107Z,33.42
2019-05-01T11:49:03.538Z,34.08
2019-05-01T11:51:32.948Z,34.93
2019-05-01T11:54:02.970Z,35.74
2019-05-01T11:56:32.317Z,37.38
2019-05-01T11:59:01.696Z,38.16
2019-05-01T12:01:31.179Z,38.48
2019-05-01T12:04:00.526Z,38.90
2019-05-01T12:06:29.943Z,38.23
2019-05-01T12:08:59.352Z,38.39
2019-05-01T12:11:31.120Z,38.23
2019-05-01T12:14:00.512Z,38.16
2019-05-01T12:16:47.739Z,38.19
2019-05-01T12:19:17.430Z,37.67
2019-05-01T12:21:46.807Z,37.78
2019-05-01T12:24:16.191Z,38.44
2019-05-01T12:26:45.671Z,38.42
2019-05-01T12:29:15.075Z,38.14
2019-05-01T12:31:44.491Z,39.05
2019-05-01T12:34:13.851Z,39.22
2019-05-01T12:36:44.207Z,40.16
2019-05-01T12:39:15.864Z,40.00
2019-05-01T12:41:54.195Z,39.11
2019-05-01T12:44:23.635Z,39.76
2019-05-01T12:46:59.529Z,40.89
2019-05-01T12:49:28.946Z,40.34
2019-05-01T12:52:10.254Z,39.96
2019-05-01T12:54:48.096Z,39.08
2019-05-01T12:57:17.906Z,39.82
2019-05-01T12:59:47.302Z,39.88
2019-05-01T13:02:16.685Z,40.37
2019-05-01T13:04:46.061Z,40.20
2019-05-01T13:07:15.748Z,39.17
2019-05-01T13:09:45.131Z,39.20
2019-05-01T13:12:14.530Z,39.15
2019-05-01T13:14:43.917Z,38.62
2019-05-01T13:17:13.356Z,37.89
2019-05-01T13:19:42.707Z,37.48
2019-05-01T13:22:12.065Z,37.22
2019-05-01T13:24:50.422Z,34.76
2019-05-01T13:27:39.007Z,34.79
2019-05-01T13:30:32.739Z,34.05
2019-05-01T13:33:02.224Z,34.36
2019-05-01T13:35:31.624Z,34.56
2019-05-01T13:38:01.116Z,34.51
2019-05-01T13:40:30.564Z,35.88
2019-05-01T13:42:59.955Z,35.51
2019-05-01T13:45:29.323Z,33.11
2019-05-01T13:47:58.670Z,33.95
2019-05-01T13:50:28.648Z,34.03
2019-05-01T13:52:58.022Z,34.95
2019-05-01T13:55:28.176Z,34.85
2019-05-01T13:57:57.549Z,34.49
2019-05-01T14:00:27.270Z,35.41
2019-05-01T14:02:56.674Z,37.08
2019-05-01T14:05:26.409Z,37.97
2019-05-01T14:07:55.794Z,38.10
2019-05-01T14:10:25.273Z,38.09
2019-05-01T14:12:54.660Z,38.24
2019-05-01T14:15:24.015Z,37.98
2019-05-01T14:17:53.398Z,38.17
2019-05-01T14:20:41.695Z,38.32
2019-05-01T14:23:17.686Z,38.67
2019-05-01T14:26:06.660Z,38.21
2019-05-01T14:28:36.232Z,38.61
2019-05-01T14:31:06.807Z,38.89
2019-05-01T14:33:36.311Z,39.33
2019-05-01T14:36:05.708Z,39.69
2019-05-01T14:38:35.565Z,40.74
2019-05-01T14:41:05.078Z,43.00
2019-05-01T14:43:34.541Z,44.86
2019-05-01T14:46:03.924Z,45.83
2019-05-01T14:48:33.395Z,45.94
2019-05-01T14:51:02.801Z,44.60
2019-05-01T14:53:32.485Z,43.97
2019-05-01T14:56:02.337Z,44.06
2019-05-01T14:58:31.762Z,43.98
2019-05-01T15:01:01.108Z,44.79
2019-05-01T15:03:30.482Z,45.81
2019-05-01T15:05:59.834Z,47.06
2019-05-01T15:08:29.270Z,47.35
2019-05-01T15:10:58.642Z,46.64
2019-05-01T15:13:34.756Z,45.59
2019-05-01T15:16:21.757Z,45.06
2019-05-01T15:19:08.609Z,43.88
2019-05-01T15:21:37.977Z,42.97
2019-05-01T15:24:07.340Z,43.49
2019-05-01T15:26:36.746Z,44.11
2019-05-01T15:29:06.119Z,44.74
2019-05-01T15:31:35.510Z,45.45
2019-05-01T15:34:04.964Z,46.70
2019-05-01T15:36:34.367Z,46.76
2019-05-01T15:39:06.819Z,47.69
2019-05-01T15:42:04.076Z,47.84
2019-05-01T15:44:35.565Z,48.81
2019-05-01T15:47:06.054Z,48.68
2019-05-01T15:49:36.505Z,48.19
2019-05-01T15:52:05.921Z,48.56
2019-05-01T15:54:35.279Z,48.67
2019-05-01T15:57:05.534Z,47.59
2019-05-01T15:59:36.032Z,47.16
2019-05-01T16:02:05.718Z,46.21
2019-05-01T16:04:35.145Z,44.87
2019-05-01T16:07:04.561Z,43.56
2019-05-01T16:09:33.951Z,44.07
2019-05-01T16:12:34.482Z,43.02
2019-05-01T16:15:05.612Z,42.46
2019-05-01T16:17:35.038Z,42.50
2019-05-01T16:20:04.735Z,42.79
2019-05-01T16:22:34.131Z,43.45
2019-05-01T16:25:03.620Z,44.76
2019-05-01T16:27:33.014Z,46.18
2019-05-01T16:30:02.547Z,47.33
2019-05-01T16:32:31.966Z,47.67
2019-05-01T16:35:01.256Z,48.84
2019-05-01T16:37:30.722Z,49.66
2019-05-01T16:40:18.819Z,51.95
2019-05-01T16:42:48.181Z,51.95
2019-05-01T16:45:17.781Z,52.45
2019-05-01T16:47:47.206Z,52.31
2019-05-01T16:50:16.812Z,53.16
2019-05-01T16:52:46.200Z,53.16
2019-05-01T16:55:16.168Z,54.42
2019-05-01T16:57:45.649Z,55.31
2019-05-01T17:00:17.677Z,56.01
2019-05-01T17:03:10.633Z,56.60
2019-05-01T17:06:11.397Z,56.95
2019-05-01T17:08:52.996Z,57.49
2019-05-01T17:11:31.185Z,58.59
2019-05-01T17:14:00.897Z,59.57
2019-05-01T17:16:30.390Z,61.30
2019-05-01T17:18:59.816Z,62.67
2019-05-01T17:21:29.226Z,63.21
2019-05-01T17:23:58.625Z,64.56
2019-05-01T17:26:28.068Z,65.73
2019-05-01T17:28:57.424Z,66.41
2019-05-01T17:31:28.697Z,66.81
2019-05-01T17:33:58.144Z,67.25
2019-05-01T17:36:27.560Z,67.11
2019-05-01T17:38:56.992Z,66.77
2019-05-01T17:41:27.213Z,66.29
2019-05-01T17:43:57.705Z,66.04
2019-05-01T17:46:27.084Z,66.39
2019-05-01T17:48:56.452Z,67.01
2019-05-01T17:51:25.917Z,67.73
2019-05-01T17:53:55.316Z,68.31
2019-05-01T17:56:28.355Z,69.09
2019-05-01T17:58:55.823Z,69.61
2019-05-01T18:01:45.957Z,70.14
2019-05-01T18:04:21.340Z,70.74
2019-05-01T18:06:51.542Z,71.86
2019-05-01T18:09:21.115Z,73.00
2019-05-01T18:11:52.175Z,73.45
2019-05-01T18:14:26.066Z,73.41
2019-05-01T18:16:52.760Z,73.26
2019-05-01T18:19:23.479Z,73.18
2019-05-01T18:22:14.649Z,73.29
2019-05-01T18:24:53.890Z,73.82
2019-05-01T18:27:49.961Z,74.34
2019-05-01T18:30:20.503Z,74.61
2019-05-01T18:32:52.387Z,75.21
2019-05-01T18:35:20.588Z,75.30
2019-05-01T18:37:57.434Z,75.51
2019-05-01T18:40:34.663Z,75.68
2019-05-01T18:43:04.887Z,76.41
2019-05-01T18:45:54.588Z,76.50
2019-05-01T18:48:25.383Z,75.99
2019-05-01T18:50:56.388Z,75.44
2019-05-01T18:53:26.287Z,75.38
2019-05-01T18:55:55.678Z,75.32
2019-05-01T18:58:25.041Z,75.10
2019-05-01T19:00:54.526Z,75.16
2019-05-01T19:03:23.982Z,75.44
2019-05-01T19:05:57.288Z,75.40
2019-05-01T19:08:26.676Z,75.64
2019-05-01T19:10:56.056Z,75.81
2019-05-01T19:13:25.602Z,75.92
2019-05-01T19:15:54.964Z,76.27
2019-05-01T19:18:24.403Z,76.57
2019-05-01T19:20:59.655Z,76.80
2019-05-01T19:23:27.986Z,76.82
2019-05-01T19:26:03.597Z,76.83
2019-05-01T19:28:29.103Z,76.83
2019-05-01T19:30:58.460Z,77.37
2019-05-01T19:33:27.835Z,77.37
2019-05-01T19:35:57.287Z,77.11
2019-05-01T19:38:29.563Z,77.36
2019-05-01T19:40:57.780Z,77.11
2019-05-01T19:43:27.456Z,76.94
2019-05-01T19:45:57.241Z,76.91
2019-05-01T19:48:26.671Z,76.89
2019-05-01T19:50:56.151Z,77.31
2019-05-01T19:53:28.767Z,77.76
2019-05-01T19:55:56.976Z,78.40
2019-05-01T19:58:26.568Z,78.47
2019-05-01T20:01:06.615Z,78.41
2019-05-01T20:03:37.049Z,78.57
2019-05-01T20:06:08.239Z,78.79
2019-05-01T20:08:37.808Z,78.79
2019-05-01T20:11:09.513Z,78.83
2019-05-01T20:13:38.521Z,78.62
2019-05-01T20:16:09.120Z,78.91
2019-05-01T20:18:38.576Z,79.09
2019-05-01T20:21:08.118Z,79.29
2019-05-01T20:23:37.522Z,79.39
2019-05-01T20:26:06.973Z,79.17
2019-05-01T20:28:43.333Z,78.69
2019-05-01T20:31:14.460Z,78.89
2019-05-01T20:33:44.460Z,78.97
2019-05-01T20:36:14.067Z,78.64
2019-05-01T20:38:43.456Z,78.57
2019-05-01T20:41:15.931Z,78.68
2019-05-01T20:43:45.398Z,78.57
2019-05-01T20:46:15.006Z,78.37
2019-05-01T20:48:46.421Z,78.51
2019-05-01T20:51:15.810Z,78.46
2019-05-01T20:53:45.179Z,78.20
2019-05-01T20:56:28.681Z,78.11
2019-05-01T20:59:03.325Z,78.09
2019-05-01T21:01:29.550Z,77.96
2019-05-01T21:04:27.140Z,77.91
2019-05-01T21:07:19.943Z,77.76
2019-05-01T21:09:48.423Z,77.98
2019-05-01T21:12:18.539Z,78.42
2019-05-01T21:14:49.761Z,78.92
2019-05-01T21:17:19.030Z,79.72
2019-05-01T21:19:48.473Z,80.54
2019-05-01T21:22:17.889Z,81.26
2019-05-01T21:24:47.399Z,81.94
2019-05-01T21:27:16.779Z,82.19
2019-05-01T21:29:46.129Z,82.53
2019-05-01T21:32:18.382Z,82.33
2019-05-01T21:34:46.613Z,82.90
2019-05-01T21:37:16.007Z,82.45
2019-05-01T21:39:45.396Z,82.54
2019-05-01T21:42:16.000Z,82.47
2019-05-01T21:44:46.187Z,82.28
2019-05-01T21:47:15.579Z,82.30
2019-05-01T21:49:45.025Z,82.95
2019-05-01T21:52:17.968Z,83.69
2019-05-01T21:54:45.518Z,84.44
2019-05-01T21:57:17.418Z,85.21
2019-05-01T21:59:48.121Z,85.95
2019-05-01T22:02:17.137Z,86.31
2019-05-01T22:04:47.276Z,86.68
2019-05-01T22:07:16.815Z,88.49
2019-05-01T22:09:50.517Z,87.34
2019-05-01T22:12:17.754Z,86.68
2019-05-01T22:14:57.384Z,87.14
2019-05-01T22:17:35.119Z,88.31
2019-05-01T22:20:05.835Z,88.82
2019-05-01T22:22:45.919Z,89.79
2019-05-01T22:25:34.342Z,91.36
2019-05-01T22:28:19.896Z,91.69
2019-05-01T22:31:07.920Z,92.67
2019-05-01T22:33:37.566Z,93.43
2019-05-01T22:36:06.920Z,94.06
2019-05-01T22:38:36.375Z,94.67
2019-05-01T22:41:11.864Z,95.48
2019-05-01T22:43:41.257Z,95.24
2019-05-01T22:46:18.130Z,96.05
2019-05-01T22:48:47.471Z,95.72
2019-05-01T22:51:22.658Z,95.15
2019-05-01T22:53:55.180Z,95.40
2019-05-01T22:56:25.731Z,96.41
2019-05-01T22:58:55.139Z,97.78
2019-05-01T23:01:25.561Z,97.48
2019-05-01T23:03:57.344Z,97.25
2019-05-01T23:06:28.674Z,97.73
2019-05-01T23:08:58.015Z,98.02
2019-05-01T23:11:29.487Z,98.87
2019-05-01T23:13:58.850Z,99.10
2019-05-01T23:16:31.987Z,99.35
2019-05-01T23:19:02.057Z,98.58
2019-05-01T23:21:31.345Z,98.25
2019-05-01T23:24:01.866Z,97.36
2019-05-01T23:26:31.857Z,97.54
2019-05-01T23:29:01.315Z,95.44
2019-05-01T23:31:30.854Z,95.56
2019-05-01T23:34:00.446Z,95.03
2019-05-01T23:36:29.826Z,95.10
2019-05-01T23:38:59.178Z,94.92
2019-05-01T23:41:45.331Z,94.55
2019-05-01T23:44:03.584Z,94.40
2019-05-01T23:46:30.761Z,94.00
2019-05-01T23:49:00.157Z,94.27
2019-05-01T23:51:29.907Z,94.37
2019-05-01T23:53:59.399Z,93.43
2019-05-01T23:56:31.085Z,94.10
2019-05-01T23:58:59.879Z,92.09
